Current Weather

South Haven Area Rgnl

South Haven, Michigan (KLWA)

Report from: Tuesday, July 16, 2024 5:15 AM EDT
Current time: Tuesday, July 16, 2024 5:37 AM EDT

Nearby weather – Weather history – Daily summaries
Weather forecast

Temperature20.6°C (69.1°F)
Dew point20.1°C (68.2°F)
Winds 4 kts (2.1 m/s, 4.6 mph) Southwest (220°)
Visibility10 mi. (16.1 km)
Clouds Sky clear
Altimeter29.75 in.Hg (1007 mB)
Relative humidity97 %
Density altitude1,169 ft. (356 m)
Remarks Fully automated report
Automated weather observing station with precipitation discriminator
Flight conditions Visual Meteorological Conditions
Raw dataKLWA 160915Z AUTO 22004KT 10SM CLR 21/20 A2975 RMK AO2 T02060201
An error has occurred. This application may no longer respond until reloaded. Reload 🗙